sensor_id;sensor_type;location;lat;lon;timestamp;pressure;altitude;pressure_sealevel;temperature;humidity
69624;BME280;56843;52.020;5.670;2022-09-11T00:01:21;101572.81;;;11.31;98.36
69624;BME280;56843;52.020;5.670;2022-09-11T00:02:52;101569.66;;;11.29;98.86
69624;BME280;56843;52.020;5.670;2022-09-11T00:04:22;101572.66;;;11.28;98.78
69624;BME280;56843;52.020;5.670;2022-09-11T00:06:00;101578.31;;;11.26;98.30
69624;BME280;56843;52.020;5.670;2022-09-11T00:07:31;101574.38;;;11.24;98.61
69624;BME280;56843;52.020;5.670;2022-09-11T00:09:04;101574.69;;;11.22;98.51
69624;BME280;56843;52.020;5.670;2022-09-11T00:10:36;101580.31;;;11.21;98.63
69624;BME280;56843;52.020;5.670;2022-09-11T00:12:09;101586.47;;;11.21;98.33
69624;BME280;56843;52.020;5.670;2022-09-11T00:13:39;101581.44;;;11.20;98.53
69624;BME280;56843;52.020;5.670;2022-09-11T00:15:10;101588.97;;;11.18;98.73
69624;BME280;56843;52.020;5.670;2022-09-11T00:16:43;101583.44;;;11.14;98.39
69624;BME280;56843;52.020;5.670;2022-09-11T00:18:16;101581.56;;;11.15;98.48
69624;BME280;56843;52.020;5.670;2022-09-11T00:19:47;101589.56;;;11.15;98.47
69624;BME280;56843;52.020;5.670;2022-09-11T00:21:18;101588.47;;;11.16;98.79
69624;BME280;56843;52.020;5.670;2022-09-11T00:22:49;101581.44;;;11.20;98.74
69624;BME280;56843;52.020;5.670;2022-09-11T00:24:20;101581.28;;;11.25;98.79
69624;BME280;56843;52.020;5.670;2022-09-11T00:25:51;101581.75;;;11.27;99.17
69624;BME280;56843;52.020;5.670;2022-09-11T00:27:22;101581.75;;;11.27;98.90
69624;BME280;56843;52.020;5.670;2022-09-11T00:28:53;101574.53;;;11.27;99.01
69624;BME280;56843;52.020;5.670;2022-09-11T00:30:24;101587.09;;;11.27;98.80
69624;BME280;56843;52.020;5.670;2022-09-11T00:31:54;101580.19;;;11.26;98.97
69624;BME280;56843;52.020;5.670;2022-09-11T00:33:27;101575.44;;;11.23;98.92
69624;BME280;56843;52.020;5.670;2022-09-11T00:34:58;101574.97;;;11.21;98.57
69624;BME280;56843;52.020;5.670;2022-09-11T00:36:30;101581.25;;;11.16;98.49
69624;BME280;56843;52.020;5.670;2022-09-11T00:38:01;101583.75;;;11.13;98.53
69624;BME280;56843;52.020;5.670;2022-09-11T00:39:32;101579.78;;;11.10;98.41
69624;BME280;56843;52.020;5.670;2022-09-11T00:41:07;101578.53;;;11.07;98.29
69624;BME280;56843;52.020;5.670;2022-09-11T00:42:38;101586.06;;;11.05;98.42
69624;BME280;56843;52.020;5.670;2022-09-11T00:45:54;101590.44;;;11.01;98.75
69624;BME280;56843;52.020;5.670;2022-09-11T00:47:27;101590.75;;;11.00;98.51
69624;BME280;56843;52.020;5.670;2022-09-11T00:48:59;101584.31;;;11.01;98.47
69624;BME280;56843;52.020;5.670;2022-09-11T00:50:32;101584.00;;;11.02;98.69
69624;BME280;56843;52.020;5.670;2022-09-11T00:52:07;101584.47;;;11.04;98.86
69624;BME280;56843;52.020;5.670;2022-09-11T00:53:39;101580.56;;;11.02;98.98
69624;BME280;56843;52.020;5.670;2022-09-11T00:55:15;101570.16;;;11.00;98.59
69624;BME280;56843;52.020;5.670;2022-09-11T00:56:48;101572.66;;;10.97;98.81
69624;BME280;56843;52.020;5.670;2022-09-11T00:58:22;101572.66;;;10.97;98.83
69624;BME280;56843;52.020;5.670;2022-09-11T00:59:56;101574.06;;;10.94;98.77
69624;BME280;56843;52.020;5.670;2022-09-11T01:03:24;101568.34;;;10.87;98.58
69624;BME280;56843;52.020;5.670;2022-09-11T01:04:55;101568.19;;;10.84;98.67
69624;BME280;56843;52.020;5.670;2022-09-11T01:06:27;101572.56;;;10.80;98.72
69624;BME280;56843;52.020;5.670;2022-09-11T01:08:00;101572.06;;;10.78;98.19
69624;BME280;56843;52.020;5.670;2022-09-11T01:09:32;101576.41;;;10.74;98.57
69624;BME280;56843;52.020;5.670;2022-09-11T01:11:24;101576.25;;;10.70;98.45
69624;BME280;56843;52.020;5.670;2022-09-11T01:14:45;101575.88;;;10.63;98.36
69624;BME280;56843;52.020;5.670;2022-09-11T01:16:47;101586.09;;;10.61;98.58
69624;BME280;56843;52.020;5.670;2022-09-11T01:18:31;101581.34;;;10.58;98.78
69624;BME280;56843;52.020;5.670;2022-09-11T01:24:18;101587.91;;;10.52;98.92
69624;BME280;56843;52.020;5.670;2022-09-11T01:26:26;101584.91;;;10.54;98.94
69624;BME280;56843;52.020;5.670;2022-09-11T01:27:57;101584.91;;;10.54;98.72
69624;BME280;56843;52.020;5.670;2022-09-11T01:29:38;101579.56;;;10.54;98.74
69624;BME280;56843;52.020;5.670;2022-09-11T01:31:11;101584.91;;;10.54;99.05
69624;BME280;56843;52.020;5.670;2022-09-11T01:34:34;101582.56;;;10.52;98.89
69624;BME280;56843;52.020;5.670;2022-09-11T01:36:16;101589.78;;;10.52;98.60
69624;BME280;56843;52.020;5.670;2022-09-11T01:38:05;101583.19;;;10.49;98.58
69624;BME280;56843;52.020;5.670;2022-09-11T01:39:43;101587.25;;;10.47;98.73
69624;BME280;56843;52.020;5.670;2022-09-11T01:41:21;101587.53;;;10.45;98.71
69624;BME280;56843;52.020;5.670;2022-09-11T01:43:02;101597.44;;;10.45;98.86
69624;BME280;56843;52.020;5.670;2022-09-11T01:44:39;101600.38;;;10.43;98.77
69624;BME280;56843;52.020;5.670;2022-09-11T01:46:17;101598.81;;;10.42;98.66
69624;BME280;56843;52.020;5.670;2022-09-11T01:47:54;101604.75;;;10.39;98.89
69624;BME280;56843;52.020;5.670;2022-09-11T01:49:33;101611.22;;;10.38;98.61
69624;BME280;56843;52.020;5.670;2022-09-11T01:51:08;101614.47;;;10.35;98.60
69624;BME280;56843;52.020;5.670;2022-09-11T01:52:53;101604.09;;;10.33;98.43
69624;BME280;56843;52.020;5.670;2022-09-11T01:54:31;101607.03;;;10.32;98.58
69624;BME280;56843;52.020;5.670;2022-09-11T01:56:09;101610.81;;;10.31;98.44
69624;BME280;56843;52.020;5.670;2022-09-11T01:57:59;101606.56;;;10.30;98.65
69624;BME280;56843;52.020;5.670;2022-09-11T01:59:53;101611.72;;;10.26;98.59
69624;BME280;56843;52.020;5.670;2022-09-11T02:01:31;101613.09;;;10.24;98.63
69624;BME280;56843;52.020;5.670;2022-09-11T02:03:10;101610.75;;;10.22;98.75
69624;BME280;56843;52.020;5.670;2022-09-11T02:04:47;101612.91;;;10.20;98.62
69624;BME280;56843;52.020;5.670;2022-09-11T02:06:30;101610.53;;;10.19;98.56
69624;BME280;56843;52.020;5.670;2022-09-11T02:08:07;101615.88;;;10.19;98.58
69624;BME280;56843;52.020;5.670;2022-09-11T02:09:53;101612.41;;;10.18;98.56
69624;BME280;56843;52.020;5.670;2022-09-11T02:11:29;101609.75;;;10.18;98.68
69624;BME280;56843;52.020;5.670;2022-09-11T02:13:09;101603.63;;;10.18;98.78
69624;BME280;56843;52.020;5.670;2022-09-11T02:14:45;101615.28;;;10.22;98.79
69624;BME280;56843;52.020;5.670;2022-09-11T02:16:24;101615.06;;;10.32;99.33
69624;BME280;56843;52.020;5.670;2022-09-11T02:18:03;101618.69;;;10.36;99.11
69624;BME280;56843;52.020;5.670;2022-09-11T02:19:36;101621.25;;;10.41;99.58
69624;BME280;56843;52.020;5.670;2022-09-11T02:21:09;101618.28;;;10.43;99.33
69624;BME280;56843;52.020;5.670;2022-09-11T02:22:42;101611.28;;;10.47;99.56
69624;BME280;56843;52.020;5.670;2022-09-11T02:24:14;101614.13;;;10.50;99.28
69624;BME280;56843;52.020;5.670;2022-09-11T02:25:45;101610.84;;;10.53;99.57
69624;BME280;56843;52.020;5.670;2022-09-11T02:27:20;101615.28;;;10.58;99.43
69624;BME280;56843;52.020;5.670;2022-09-11T02:28:52;101621.13;;;10.60;99.55
69624;BME280;56843;52.020;5.670;2022-09-11T02:30:23;101620.97;;;10.65;99.66
69624;BME280;56843;52.020;5.670;2022-09-11T02:31:54;101621.97;;;10.69;99.61
69624;BME280;56843;52.020;5.670;2022-09-11T02:33:30;101621.66;;;10.70;99.52
69624;BME280;56843;52.020;5.670;2022-09-11T02:35:02;101620.06;;;10.69;99.59
69624;BME280;56843;52.020;5.670;2022-09-11T02:38:27;101622.25;;;10.67;99.30
69624;BME280;56843;52.020;5.670;2022-09-11T02:50:57;101629.25;;;10.55;99.06
69624;BME280;56843;52.020;5.670;2022-09-11T02:52:45;101634.91;;;10.53;99.21
69624;BME280;56843;52.020;5.670;2022-09-11T02:55:18;101631.25;;;10.49;99.03
69624;BME280;56843;52.020;5.670;2022-09-11T02:57:00;101636.88;;;10.48;99.41
69624;BME280;56843;52.020;5.670;2022-09-11T02:58:39;101638.94;;;10.51;99.44
69624;BME280;56843;52.020;5.670;2022-09-11T03:00:13;101641.53;;;10.56;99.53
69624;BME280;56843;52.020;5.670;2022-09-11T03:01:49;101634.00;;;10.58;99.56
69624;BME280;56843;52.020;5.670;2022-09-11T03:03:21;101637.91;;;10.60;99.55
69624;BME280;56843;52.020;5.670;2022-09-11T03:04:52;101641.09;;;10.62;99.25
69624;BME280;56843;52.020;5.670;2022-09-11T03:06:24;101641.09;;;10.62;99.17
69624;BME280;56843;52.020;5.670;2022-09-11T03:07:56;101641.09;;;10.62;99.49
69624;BME280;56843;52.020;5.670;2022-09-11T03:09:27;101643.47;;;10.64;99.23
69624;BME280;56843;52.020;5.670;2022-09-11T03:11:03;101641.88;;;10.63;99.37
69624;BME280;56843;52.020;5.670;2022-09-11T03:12:34;101640.78;;;10.64;99.30
69624;BME280;56843;52.020;5.670;2022-09-11T03:14:06;101645.34;;;10.63;99.39
69624;BME280;56843;52.020;5.670;2022-09-11T03:15:36;101643.47;;;10.64;99.20
69624;BME280;56843;52.020;5.670;2022-09-11T03:17:07;101642.66;;;10.63;99.32
69624;BME280;56843;52.020;5.670;2022-09-11T03:18:39;101648.00;;;10.63;99.43
69624;BME280;56843;52.020;5.670;2022-09-11T03:20:11;101642.66;;;10.63;99.40
69624;BME280;56843;52.020;5.670;2022-09-11T03:21:41;101648.00;;;10.63;99.14
69624;BME280;56843;52.020;5.670;2022-09-11T03:23:12;101638.13;;;10.64;99.47
69624;BME280;56843;52.020;5.670;2022-09-11T03:24:43;101643.47;;;10.64;99.18
69624;BME280;56843;52.020;5.670;2022-09-11T03:26:14;101638.91;;;10.64;99.35
69624;BME280;56843;52.020;5.670;2022-09-11T03:27:46;101638.13;;;10.64;99.44
69624;BME280;56843;52.020;5.670;2022-09-11T03:29:17;101641.88;;;10.63;99.21
69624;BME280;56843;52.020;5.670;2022-09-11T03:30:48;101648.31;;;10.62;99.25
69624;BME280;56843;52.020;5.670;2022-09-11T03:32:19;101645.16;;;10.60;99.28
69624;BME280;56843;52.020;5.670;2022-09-11T03:33:52;101645.44;;;10.58;99.35
69624;BME280;56843;52.020;5.670;2022-09-11T03:35:23;101641.53;;;10.56;99.35
69624;BME280;56843;52.020;5.670;2022-09-11T03:36:54;101650.59;;;10.55;98.93
69624;BME280;56843;52.020;5.670;2022-09-11T03:38:25;101649.00;;;10.54;98.83
69624;BME280;56843;52.020;5.670;2022-09-11T03:39:56;101655.78;;;10.51;99.06
69624;BME280;56843;52.020;5.670;2022-09-11T03:41:27;101656.84;;;10.50;99.20
69624;BME280;56843;52.020;5.670;2022-09-11T03:42:58;101657.97;;;10.49;99.18
69624;BME280;56843;52.020;5.670;2022-09-11T03:44:28;101658.72;;;10.50;99.24
69624;BME280;56843;52.020;5.670;2022-09-11T03:45:59;101659.03;;;10.48;99.25
69624;BME280;56843;52.020;5.670;2022-09-11T03:47:30;101651.81;;;10.49;99.34
69624;BME280;56843;52.020;5.670;2022-09-11T03:49:01;101656.38;;;10.48;99.35
69624;BME280;56843;52.020;5.670;2022-09-11T03:50:33;101662.78;;;10.47;99.15
69624;BME280;56843;52.020;5.670;2022-09-11T03:52:04;101653.22;;;10.46;99.27
69624;BME280;56843;52.020;5.670;2022-09-11T03:53:34;101648.66;;;10.47;99.21
69624;BME280;56843;52.020;5.670;2022-09-11T03:55:06;101652.09;;;10.47;99.32
69624;BME280;56843;52.020;5.670;2022-09-11T03:56:37;101646.75;;;10.47;99.48
69624;BME280;56843;52.020;5.670;2022-09-11T03:58:07;101648.94;;;10.45;99.18
69624;BME280;56843;52.020;5.670;2022-09-11T03:59:41;101649.25;;;10.44;99.37
69624;BME280;56843;52.020;5.670;2022-09-11T04:01:13;101653.31;;;10.41;99.23
69624;BME280;56843;52.020;5.670;2022-09-11T04:02:45;101657.09;;;10.40;99.35
69624;BME280;56843;52.020;5.670;2022-09-11T04:04:17;101653.63;;;10.40;99.20
69624;BME280;56843;52.020;5.670;2022-09-11T04:05:58;101653.63;;;10.40;99.50
69624;BME280;56843;52.020;5.670;2022-09-11T04:07:29;101652.81;;;10.39;99.32
69624;BME280;56843;52.020;5.670;2022-09-11T04:09:01;101646.41;;;10.40;99.35
69624;BME280;56843;52.020;5.670;2022-09-11T04:10:32;101646.41;;;10.40;99.50
69624;BME280;56843;52.020;5.670;2022-09-11T04:12:04;101649.84;;;10.41;99.51
69624;BME280;56843;52.020;5.670;2022-09-11T04:13:36;101655.19;;;10.41;99.65
69624;BME280;56843;52.020;5.670;2022-09-11T04:15:09;101653.31;;;10.41;99.44
69624;BME280;56843;52.020;5.670;2022-09-11T04:16:40;101656.78;;;10.42;99.62
69624;BME280;56843;52.020;5.670;2022-09-11T04:18:11;101651.44;;;10.42;99.18
69624;BME280;56843;52.020;5.670;2022-09-11T04:19:43;101657.09;;;10.40;99.48
69624;BME280;56843;52.020;5.670;2022-09-11T04:21:16;101660.03;;;10.39;99.24
69624;BME280;56843;52.020;5.670;2022-09-11T04:22:48;101646.50;;;10.35;99.08
69624;BME280;56843;52.020;5.670;2022-09-11T04:24:19;101651.63;;;10.31;99.04
69624;BME280;56843;52.020;5.670;2022-09-11T04:25:50;101653.06;;;10.29;99.11
69624;BME280;56843;52.020;5.670;2022-09-11T04:27:23;101648.00;;;10.27;99.01
69624;BME280;56843;52.020;5.670;2022-09-11T04:28:54;101647.81;;;10.24;99.21
69624;BME280;56843;52.020;5.670;2022-09-11T04:30:27;101657.50;;;10.20;98.88
69624;BME280;56843;52.020;5.670;2022-09-11T04:31:58;101659.69;;;10.18;98.85
69624;BME280;56843;52.020;5.670;2022-09-11T04:33:33;101658.38;;;10.15;99.05
69624;BME280;56843;52.020;5.670;2022-09-11T04:35:05;101661.31;;;10.14;99.23
69624;BME280;56843;52.020;5.670;2022-09-11T04:36:40;101666.16;;;10.12;99.24
69624;BME280;56843;52.020;5.670;2022-09-11T04:38:15;101663.81;;;10.10;99.15
69624;BME280;56843;52.020;5.670;2022-09-11T04:39:46;101669.16;;;10.10;98.92
69624;BME280;56843;52.020;5.670;2022-09-11T04:41:19;101677.16;;;10.10;98.91
69624;BME280;56843;52.020;5.670;2022-09-11T04:42:49;101674.00;;;10.08;99.14
69624;BME280;56843;52.020;5.670;2022-09-11T04:44:20;101666.78;;;10.09;99.18
69624;BME280;56843;52.020;5.670;2022-09-11T04:45:50;101666.28;;;10.07;99.14
69624;BME280;56843;52.020;5.670;2022-09-11T04:47:21;101672.69;;;10.06;99.27
69624;BME280;56843;52.020;5.670;2022-09-11T04:48:55;101675.38;;;10.06;98.83
69624;BME280;56843;52.020;5.670;2022-09-11T04:50:29;101679.91;;;10.05;99.16
69624;BME280;56843;52.020;5.670;2022-09-11T04:52:18;101683.97;;;10.03;99.32
69624;BME280;56843;52.020;5.670;2022-09-11T04:53:49;101685.06;;;10.02;99.18
69624;BME280;56843;52.020;5.670;2022-09-11T04:55:20;101682.72;;;10.00;99.10
69624;BME280;56843;52.020;5.670;2022-09-11T04:56:51;101677.38;;;10.00;99.33
69624;BME280;56843;52.020;5.670;2022-09-11T04:58:22;101668.84;;;9.98;99.05
69624;BME280;56843;52.020;5.670;2022-09-11T04:59:54;101679.81;;;9.97;99.26
69624;BME280;56843;52.020;5.670;2022-09-11T05:01:27;101673.69;;;9.96;99.07
69624;BME280;56843;52.020;5.670;2022-09-11T05:03:01;101676.97;;;9.93;99.13
69624;BME280;56843;52.020;5.670;2022-09-11T05:04:31;101680.44;;;9.94;99.23
69624;BME280;56843;52.020;5.670;2022-09-11T05:06:08;101682.31;;;9.93;99.34
69624;BME280;56843;52.020;5.670;2022-09-11T05:07:39;101675.09;;;9.94;99.27
69624;BME280;56843;52.020;5.670;2022-09-11T05:09:10;101675.88;;;9.94;99.48
69624;BME280;56843;52.020;5.670;2022-09-11T05:10:40;101674.28;;;9.93;99.22
69624;BME280;56843;52.020;5.670;2022-09-11T05:12:11;101683.38;;;9.92;99.24
69624;BME280;56843;52.020;5.670;2022-09-11T05:13:42;101677.25;;;9.92;99.29
69624;BME280;56843;52.020;5.670;2022-09-11T05:15:13;101679.63;;;9.93;99.44
69624;BME280;56843;52.020;5.670;2022-09-11T05:16:45;101684.97;;;9.93;99.63
69624;BME280;56843;52.020;5.670;2022-09-11T05:18:18;101682.00;;;9.95;99.40
69624;BME280;56843;52.020;5.670;2022-09-11T05:19:48;101691.00;;;9.99;99.73
69624;BME280;56843;52.020;5.670;2022-09-11T05:21:20;101689.59;;;10.01;99.37
69624;BME280;56843;52.020;5.670;2022-09-11T05:22:54;101701.06;;;10.02;99.57
69624;BME280;56843;52.020;5.670;2022-09-11T05:24:24;101701.88;;;10.02;99.75
69624;BME280;56843;52.020;5.670;2022-09-11T05:26:00;101694.94;;;10.01;99.55
69624;BME280;56843;52.020;5.670;2022-09-11T05:27:31;101700.28;;;10.01;99.45
69624;BME280;56843;52.020;5.670;2022-09-11T05:29:12;101709.56;;;10.04;99.69
69624;BME280;56843;52.020;5.670;2022-09-11T05:30:52;101702.63;;;10.03;99.67
69624;BME280;56843;52.020;5.670;2022-09-11T05:32:24;101712.25;;;10.04;99.43
69624;BME280;56843;52.020;5.670;2022-09-11T05:33:55;101710.38;;;10.04;99.52
69624;BME280;56843;52.020;5.670;2022-09-11T05:35:26;101722.91;;;10.04;99.35
69624;BME280;56843;52.020;5.670;2022-09-11T05:36:58;101715.41;;;10.06;99.42
69624;BME280;56843;52.020;5.670;2022-09-11T05:38:33;101718.88;;;10.06;99.55
69624;BME280;56843;52.020;5.670;2022-09-11T05:40:08;101713.53;;;10.06;99.48
69624;BME280;56843;52.020;5.670;2022-09-11T05:41:39;101718.25;;;10.09;99.48
69624;BME280;56843;52.020;5.670;2022-09-11T05:43:10;101715.31;;;10.11;99.62
69624;BME280;56843;52.020;5.670;2022-09-11T05:44:42;101716.59;;;10.13;99.50
69624;BME280;56843;52.020;5.670;2022-09-11T05:46:15;101722.16;;;10.17;99.67
69624;BME280;56843;52.020;5.670;2022-09-11T05:47:46;101732.25;;;10.20;99.56
69624;BME280;56843;52.020;5.670;2022-09-11T05:49:16;101727.09;;;10.23;99.60
69624;BME280;56843;52.020;5.670;2022-09-11T05:50:54;101734.22;;;10.28;99.43
69624;BME280;56843;52.020;5.670;2022-09-11T05:52:27;101724.03;;;10.30;99.57
69624;BME280;56843;52.020;5.670;2022-09-11T05:53:58;101739.97;;;10.35;99.92
69624;BME280;56843;52.020;5.670;2022-09-11T05:55:31;101739.38;;;10.38;99.64
69624;BME280;56843;52.020;5.670;2022-09-11T05:57:02;101740.34;;;10.42;99.49
69624;BME280;56843;52.020;5.670;2022-09-11T05:58:33;101742.91;;;10.47;99.93
69624;BME280;56843;52.020;5.670;2022-09-11T06:00:04;101738.56;;;10.51;99.68
69624;BME280;56843;52.020;5.670;2022-09-11T06:01:39;101748.34;;;10.56;99.86
69624;BME280;56843;52.020;5.670;2022-09-11T06:03:18;101742.09;;;10.60;99.55
69624;BME280;56843;52.020;5.670;2022-09-11T06:04:49;101744.97;;;10.64;99.68
69624;BME280;56843;52.020;5.670;2022-09-11T06:06:22;101743.59;;;10.66;99.94
69624;BME280;56843;52.020;5.670;2022-09-11T06:07:53;101737.13;;;10.67;99.71
69624;BME280;56843;52.020;5.670;2022-09-11T06:09:24;101734.94;;;10.69;99.86
69624;BME280;56843;52.020;5.670;2022-09-11T06:10:56;101743.75;;;10.70;99.97
69624;BME280;56843;52.020;5.670;2022-09-11T06:12:28;101741.88;;;10.70;99.75
69624;BME280;56843;52.020;5.670;2022-09-11T06:13:58;101740.78;;;10.71;99.86
69624;BME280;56843;52.020;5.670;2022-09-11T06:15:29;101747.72;;;10.72;99.96
69624;BME280;56843;52.020;5.670;2022-09-11T06:17:01;101747.41;;;10.74;99.48
69624;BME280;56843;52.020;5.670;2022-09-11T06:18:35;101749.81;;;10.75;99.91
69624;BME280;56843;52.020;5.670;2022-09-11T06:20:06;101745.75;;;10.78;99.83
69624;BME280;56843;52.020;5.670;2022-09-11T06:21:38;101749.66;;;10.80;99.68
69624;BME280;56843;52.020;5.670;2022-09-11T06:23:21;101742.94;;;10.83;99.79
69624;BME280;56843;52.020;5.670;2022-09-11T06:24:52;101743.16;;;10.86;99.67
69624;BME280;56843;52.020;5.670;2022-09-11T06:26:25;101752.44;;;10.89;99.66
69624;BME280;56843;52.020;5.670;2022-09-11T06:27:56;101757.97;;;10.92;99.49
69624;BME280;56843;52.020;5.670;2022-09-11T06:29:27;101749.94;;;10.92;99.56
69624;BME280;56843;52.020;5.670;2022-09-11T06:30:58;101757.88;;;10.97;99.53
69624;BME280;56843;52.020;5.670;2022-09-11T06:32:30;101756.47;;;11.00;99.56
69624;BME280;56843;52.020;5.670;2022-09-11T06:34:00;101757.72;;;11.02;99.92
69624;BME280;56843;52.020;5.670;2022-09-11T06:35:31;101760.88;;;11.04;99.82
69624;BME280;56843;52.020;5.670;2022-09-11T06:37:03;101754.16;;;11.07;99.77
69624;BME280;56843;52.020;5.670;2022-09-11T06:38:38;101754.34;;;11.11;99.68
69624;BME280;56843;52.020;5.670;2022-09-11T06:40:11;101756.41;;;11.14;99.37
69624;BME280;56843;52.020;5.670;2022-09-11T06:41:42;101760.84;;;11.18;99.77
69624;BME280;56843;52.020;5.670;2022-09-11T06:43:17;101755.38;;;11.23;99.69
69624;BME280;56843;52.020;5.670;2022-09-11T06:44:47;101765.19;;;11.28;99.70
69624;BME280;56843;52.020;5.670;2022-09-11T06:46:21;101763.19;;;11.33;99.62
69624;BME280;56843;52.020;5.670;2022-09-11T06:47:52;101753.94;;;11.39;99.80
69624;BME280;56843;52.020;5.670;2022-09-11T06:49:23;101761.06;;;11.44;99.54
69624;BME280;56843;52.020;5.670;2022-09-11T06:51:32;101755.88;;;11.47;99.81
69624;BME280;56843;52.020;5.670;2022-09-11T06:53:03;101769.63;;;11.54;99.52
69624;BME280;56843;52.020;5.670;2022-09-11T06:54:34;101761.19;;;11.61;99.65
69624;BME280;56843;52.020;5.670;2022-09-11T06:56:11;101765.63;;;11.65;99.41
69624;BME280;56843;52.020;5.670;2022-09-11T06:57:43;101770.84;;;11.70;99.58
69624;BME280;56843;52.020;5.670;2022-09-11T06:59:18;101769.31;;;11.78;100.00
69624;BME280;56843;52.020;5.670;2022-09-11T07:00:48;101767.78;;;11.86;99.53
69624;BME280;56843;52.020;5.670;2022-09-11T07:02:19;101774.78;;;11.95;99.21
69624;BME280;56843;52.020;5.670;2022-09-11T07:03:52;101764.75;;;12.09;99.22
69624;BME280;56843;52.020;5.670;2022-09-11T07:05:23;101770.63;;;12.28;99.35
69624;BME280;56843;52.020;5.670;2022-09-11T07:06:55;101771.81;;;12.53;99.26
69624;BME280;56843;52.020;5.670;2022-09-11T07:08:27;101773.66;;;12.83;99.28
69624;BME280;56843;52.020;5.670;2022-09-11T07:09:59;101768.63;;;13.16;99.14
69624;BME280;56843;52.020;5.670;2022-09-11T07:11:34;101774.75;;;13.51;98.83
69624;BME280;56843;52.020;5.670;2022-09-11T07:13:06;101771.19;;;13.84;98.18
69624;BME280;56843;52.020;5.670;2022-09-11T07:14:36;101779.16;;;14.19;97.27
69624;BME280;56843;52.020;5.670;2022-09-11T07:16:18;101765.56;;;14.53;95.84
69624;BME280;56843;52.020;5.670;2022-09-11T07:17:55;101778.28;;;14.85;94.67
69624;BME280;56843;52.020;5.670;2022-09-11T07:19:26;101776.44;;;15.06;94.16
69624;BME280;56843;52.020;5.670;2022-09-11T07:20:57;101760.75;;;15.29;93.90
69624;BME280;56843;52.020;5.670;2022-09-11T07:22:28;101773.38;;;15.49;93.50
69624;BME280;56843;52.020;5.670;2022-09-11T07:23:59;101774.56;;;15.72;93.15
69624;BME280;56843;52.020;5.670;2022-09-11T07:25:34;101776.31;;;16.01;92.86
69624;BME280;56843;52.020;5.670;2022-09-11T07:27:07;101768.59;;;16.24;91.95
69624;BME280;56843;52.020;5.670;2022-09-11T07:28:39;101783.66;;;16.49;91.77
69624;BME280;56843;52.020;5.670;2022-09-11T07:30:11;101776.28;;;16.73;91.19
69624;BME280;56843;52.020;5.670;2022-09-11T07:31:43;101784.84;;;17.00;90.63
69624;BME280;56843;52.020;5.670;2022-09-11T07:33:15;101786.31;;;17.25;90.06
69624;BME280;56843;52.020;5.670;2022-09-11T07:34:47;101785.53;;;17.52;89.44
69624;BME280;56843;52.020;5.670;2022-09-11T07:36:22;101784.78;;;17.83;89.28
69624;BME280;56843;52.020;5.670;2022-09-11T07:37:57;101792.50;;;18.12;88.51
69624;BME280;56843;52.020;5.670;2022-09-11T07:39:29;101792.38;;;18.40;88.13
69624;BME280;56843;52.020;5.670;2022-09-11T07:41:07;101787.63;;;18.68;87.74
69624;BME280;56843;52.020;5.670;2022-09-11T07:42:39;101789.75;;;18.93;87.47
69624;BME280;56843;52.020;5.670;2022-09-11T07:44:10;101789.91;;;19.20;87.01
69624;BME280;56843;52.020;5.670;2022-09-11T07:45:41;101791.41;;;19.36;86.49
69624;BME280;56843;52.020;5.670;2022-09-11T07:47:11;101796.09;;;19.39;86.85
69624;BME280;56843;52.020;5.670;2022-09-11T07:48:46;101801.09;;;19.56;86.20
69624;BME280;56843;52.020;5.670;2022-09-11T07:50:17;101788.38;;;19.79;85.90
69624;BME280;56843;52.020;5.670;2022-09-11T07:51:48;101800.69;;;19.96;85.50
69624;BME280;56843;52.020;5.670;2022-09-11T07:53:24;101796.97;;;20.08;85.15
69624;BME280;56843;52.020;5.670;2022-09-11T07:54:55;101792.25;;;20.27;84.60
69624;BME280;56843;52.020;5.670;2022-09-11T07:56:29;101797.47;;;20.36;nan
69624;BME280;56843;52.020;5.670;2022-09-11T07:58:02;101792.22;;;20.46;83.85
69624;BME280;56843;52.020;5.670;2022-09-11T07:59:33;101797.56;;;20.69;83.63
69624;BME280;56843;52.020;5.670;2022-09-11T08:01:16;101795.66;;;20.99;83.21
69624;BME280;56843;52.020;5.670;2022-09-11T08:02:47;101797.53;;;21.25;81.95
69624;BME280;56843;52.020;5.670;2022-09-11T08:04:24;101792.44;;;21.53;81.49
69624;BME280;56843;52.020;5.670;2022-09-11T08:06:02;101806.75;;;21.87;80.90
69624;BME280;56843;52.020;5.670;2022-09-11T08:07:33;101799.16;;;22.07;80.17
69624;BME280;56843;52.020;5.670;2022-09-11T08:09:12;101805.16;;;22.30;79.64
69624;BME280;56843;52.020;5.670;2022-09-11T08:10:47;101812.38;;;22.55;79.22
69624;BME280;56843;52.020;5.670;2022-09-11T08:12:17;101809.78;;;22.80;78.56
69624;BME280;56843;52.020;5.670;2022-09-11T08:13:50;101812.97;;;22.93;78.49
69624;BME280;56843;52.020;5.670;2022-09-11T08:15:22;101820.41;;;23.03;78.36
69624;BME280;56843;52.020;5.670;2022-09-11T08:16:53;101810.34;;;23.14;78.31
69624;BME280;56843;52.020;5.670;2022-09-11T08:18:25;101813.06;;;23.17;77.95
69624;BME280;56843;52.020;5.670;2022-09-11T08:19:56;101806.09;;;23.16;77.53
69624;BME280;56843;52.020;5.670;2022-09-11T08:21:26;101813.47;;;23.16;77.75
69624;BME280;56843;52.020;5.670;2022-09-11T08:22:57;101809.59;;;23.20;77.78
69624;BME280;56843;52.020;5.670;2022-09-11T08:24:28;101813.16;;;23.35;77.45
69624;BME280;56843;52.020;5.670;2022-09-11T08:26:17;101804.25;;;23.59;77.16
69624;BME280;56843;52.020;5.670;2022-09-11T08:27:53;101805.47;;;23.69;76.86
69624;BME280;56843;52.020;5.670;2022-09-11T08:29:26;101812.47;;;23.77;76.85
69624;BME280;56843;52.020;5.670;2022-09-11T08:30:57;101816.78;;;23.67;75.96
69624;BME280;56843;52.020;5.670;2022-09-11T08:32:28;101809.75;;;23.73;76.20
69624;BME280;56843;52.020;5.670;2022-09-11T08:33:59;101819.56;;;23.95;75.63
69624;BME280;56843;52.020;5.670;2022-09-11T08:35:31;101819.94;;;24.22;75.17